Time;durP1;ratioP1;P1;durP2;ratioP2;P2;SDS_P1;SDS_P2;PMS_P1;PMS_P2;Temp;Humidity;BMP_temperature;BMP_pressure;BME280_temperature;BME280_humidity;BME280_pressure;Samples;Min_cycle;Max_cycle;Signal;HPM_P1;HPM_P2
2022/12/31 00:01:05;;;;;;;;;;;;;;;18.36;65.09;100000.60;2246414;78;50629;-75
2022/12/31 00:04:06;;;;;;;;;;;;;;;18.45;64.89;100013.34;2246472;78;50188;-76
2022/12/31 00:07:08;;;;;;;;;;;;;;;18.51;64.65;100019.23;2244712;78;51160;-76
2022/12/31 00:10:10;;;;;;;;;;;;;;;18.57;64.52;100021.62;2246455;78;50638;-76
2022/12/31 00:13:11;;;;;;;;;;;;;;;18.59;64.39;100027.63;2246449;78;51553;-77
2022/12/31 00:16:14;;;;;;;;;;;;;;;18.56;64.36;100023.48;2246402;78;50044;-76
2022/12/31 00:19:16;;;;;;;;;;;;;;;18.53;64.45;100021.73;2247693;78;51073;-75
2022/12/31 00:22:17;;;;;;;;;;;;;;;18.50;64.47;100022.43;2283019;77;51545;-76
2022/12/31 00:25:19;;;;;;;;;;;;;;;18.47;64.55;100026.85;2276455;77;50287;-74
2022/12/31 00:28:20;;;;;;;;;;;;;;;18.44;64.56;100037.11;2246932;78;50109;-75
2022/12/31 00:31:29;;;;;;;;;;;;;;;18.40;64.63;100043.39;2214637;79;50110;-76
2022/12/31 00:34:31;;;;;;;;;;;;;;;18.37;64.71;100042.45;2246426;78;50292;-76
2022/12/31 00:37:33;;;;;;;;;;;;;;;18.31;65.03;100039.20;2246385;78;50425;-76
2022/12/31 00:40:34;;;;;;;;;;;;;;;18.33;64.95;100045.19;2238857;78;51540;-75
2022/12/31 00:43:36;;;;;;;;;;;;;;;18.41;64.80;100046.89;2214533;79;52764;-76
2022/12/31 00:46:37;;;;;;;;;;;;;;;18.47;64.66;100038.91;2238716;78;51418;-74
2022/12/31 00:49:39;;;;;;;;;;;;;;;18.55;64.43;100043.77;2264832;77;51455;-76
2022/12/31 00:52:41;;;;;;;;;;;;;;;18.59;64.39;100042.36;2271296;77;51541;-75
2022/12/31 00:55:42;;;;;;;;;;;;;;;18.57;64.33;100039.86;2271798;76;51512;-74
2022/12/31 00:58:44;;;;;;;;;;;;;;;18.56;64.31;100034.20;2246569;78;51500;-77
2022/12/31 01:01:45;;;;;;;;;;;;;;;18.52;64.36;100043.65;2246766;79;51457;-77
2022/12/31 01:04:47;;;;;;;;;;;;;;;18.49;64.42;100040.03;2246779;78;50666;-77
2022/12/31 01:07:49;;;;;;;;;;;;;;;18.46;64.50;100055.98;2245053;78;52300;-78
2022/12/31 01:14:15;;;;;;;;;;;;;;;18.37;64.62;100065.70;2247322;78;22295;-78
2022/12/31 01:17:16;;;;;;;;;;;;;;;18.31;64.82;100075.35;2246996;78;50461;-78
2022/12/31 01:20:18;;;;;;;;;;;;;;;18.29;65.00;100077.42;2276504;77;50309;-76
2022/12/31 01:23:19;;;;;;;;;;;;;;;18.35;64.90;100075.81;2276874;77;50259;-79
2022/12/31 01:26:21;;;;;;;;;;;;;;;18.42;64.77;100077.51;2284798;77;50769;-78
2022/12/31 01:29:23;;;;;;;;;;;;;;;18.48;64.56;100074.03;2284559;77;51424;-78
2022/12/31 01:32:24;;;;;;;;;;;;;;;18.55;64.44;100084.81;2251674;77;49928;-79
2022/12/31 01:35:26;;;;;;;;;;;;;;;18.57;64.31;100087.27;2284568;77;50725;-76
2022/12/31 01:38:28;;;;;;;;;;;;;;;18.56;64.28;100089.13;2274017;77;50385;-76
2022/12/31 01:41:30;;;;;;;;;;;;;;;18.56;64.30;100080.27;2273981;78;51542;-75
2022/12/31 01:44:33;;;;;;;;;;;;;;;18.52;64.38;100091.87;2245867;78;51004;-76
2022/12/31 01:47:37;;;;;;;;;;;;;;;18.48;64.46;100088.77;2272876;78;51575;-77
2022/12/31 01:50:39;;;;;;;;;;;;;;;18.45;64.55;100097.20;2275744;76;50421;-76
2022/12/31 01:53:41;;;;;;;;;;;;;;;18.42;64.63;100108.80;2276846;78;51607;-76
2022/12/31 01:56:42;;;;;;;;;;;;;;;18.38;64.77;100099.52;2232321;77;52643;-74
2022/12/31 01:59:44;;;;;;;;;;;;;;;18.32;64.90;100109.16;2275841;78;51490;-77
2022/12/31 02:02:46;;;;;;;;;;;;;;;18.33;64.98;100105.45;2280468;78;51447;-77
2022/12/31 02:05:55;;;;;;;;;;;;;;;18.39;64.84;100101.98;2275875;78;51422;-74
2022/12/31 02:08:56;;;;;;;;;;;;;;;18.48;64.68;100104.84;2246044;78;50985;-77
2022/12/31 02:11:58;;;;;;;;;;;;;;;18.57;64.49;100108.70;2276940;78;50746;-76
2022/12/31 02:14:59;;;;;;;;;;;;;;;18.57;64.39;100105.51;2276212;78;50446;-77
2022/12/31 02:18:09;;;;;;;;;;;;;;;18.59;64.31;100110.69;2273067;77;51725;-76
2022/12/31 02:21:21;;;;;;;;;;;;;;;18.55;64.35;100121.46;2238261;78;52527;-75
2022/12/31 02:24:33;;;;;;;;;;;;;;;18.52;64.42;100125.88;2266082;77;51566;-75
2022/12/31 02:27:39;;;;;;;;;;;;;;;18.48;64.50;100130.30;2266033;77;50517;-75
2022/12/31 02:30:41;;;;;;;;;;;;;;;18.45;64.56;100123.99;2266704;77;51548;-75
2022/12/31 02:33:52;;;;;;;;;;;;;;;18.41;64.62;100117.88;2234695;78;52540;-75
2022/12/31 02:36:54;;;;;;;;;;;;;;;18.37;64.72;100119.27;2266411;77;50709;-75
2022/12/31 02:39:56;;;;;;;;;;;;;;;18.30;64.93;100117.90;2266694;77;51433;-75
2022/12/31 02:42:57;;;;;;;;;;;;;;;18.30;65.07;100116.56;2266727;77;51517;-75
2022/12/31 02:46:07;;;;;;;;;;;;;;;18.36;64.89;100102.89;2210645;78;49664;-77
2022/12/31 02:49:22;;;;;;;;;;;;;;;18.44;64.74;100107.59;2268581;77;50795;-76
2022/12/31 02:52:41;;;;;;;;;;;;;;;18.52;64.56;100113.30;2276257;78;51498;-77
2022/12/31 02:55:44;;;;;;;;;;;;;;;18.58;64.40;100105.02;2275324;77;51592;-77
2022/12/31 03:02:22;;;;;;;;;;;;;;;18.55;64.34;100114.28;2275661;78;22393;-77
2022/12/31 03:05:24;;;;;;;;;;;;;;;18.51;64.38;100111.66;2275766;78;50433;-76
2022/12/31 03:08:26;;;;;;;;;;;;;;;18.48;64.42;100106.70;2275439;78;51624;-77
2022/12/31 03:14:47;;;;;;;;;;;;;;;18.41;64.56;100104.48;2275768;78;22316;-77
2022/12/31 03:17:49;;;;;;;;;;;;;;;18.36;64.63;100110.93;2279095;77;50225;-77
2022/12/31 03:27:30;;;;;;;;;;;;;;;18.36;64.83;100103.72;2275268;78;22427;-77
2022/12/31 03:30:32;;;;;;;;;;;;;;;18.45;64.68;100106.58;2278935;77;51603;-77
2022/12/31 03:33:34;;;;;;;;;;;;;;;18.51;64.49;100099.61;2275128;78;50625;-76
2022/12/31 03:36:36;;;;;;;;;;;;;;;18.57;64.34;100093.97;2253652;78;50758;-76
2022/12/31 03:39:38;;;;;;;;;;;;;;;18.56;64.27;100101.70;2275357;77;50423;-75
2022/12/31 03:42:39;;;;;;;;;;;;;;;18.53;64.29;100092.73;2279320;77;50670;-77
2022/12/31 03:45:41;;;;;;;;;;;;;;;18.48;64.34;100090.63;2275372;78;51579;-77
2022/12/31 03:48:42;;;;;;;;;;;;;;;18.47;64.40;100092.97;2277217;78;51560;-76
2022/12/31 03:51:44;;;;;;;;;;;;;;;18.42;64.50;100082.87;2280458;76;53572;-77
2022/12/31 03:54:46;;;;;;;;;;;;;;;18.39;64.54;100076.54;2277365;77;51395;-77
2022/12/31 03:57:47;;;;;;;;;;;;;;;18.36;64.66;100078.80;2277122;77;49888;-77
2022/12/31 04:00:49;;;;;;;;;;;;;;;18.30;64.74;100076.39;2231694;78;51337;-77
2022/12/31 04:03:50;;;;;;;;;;;;;;;18.27;64.95;100074.11;2277427;76;51569;-77
2022/12/31 04:06:52;;;;;;;;;;;;;;;18.33;64.89;100061.78;2255911;78;50033;-77
2022/12/31 04:09:54;;;;;;;;;;;;;;;18.40;64.74;100064.82;2277546;77;51548;-74
2022/12/31 04:12:55;;;;;;;;;;;;;;;18.47;64.55;100061.68;2231590;78;52384;-77
2022/12/31 04:15:57;;;;;;;;;;;;;;;18.53;64.41;100071.30;2277387;77;50327;-76
2022/12/31 04:18:59;;;;;;;;;;;;;;;18.56;64.30;100070.89;2276277;77;50425;-75
2022/12/31 04:22:01;;;;;;;;;;;;;;;18.53;64.28;100068.61;2262247;77;51406;-77
2022/12/31 04:25:02;;;;;;;;;;;;;;;18.52;64.30;100071.78;2263644;76;52475;-77
2022/12/31 04:28:04;;;;;;;;;;;;;;;18.50;64.31;100071.17;2214400;79;50381;-77
2022/12/31 04:31:05;;;;;;;;;;;;;;;18.46;64.35;100065.36;2246482;78;50710;-76
2022/12/31 04:34:07;;;;;;;;;;;;;;;18.43;64.43;100063.59;2246522;78;51516;-77
2022/12/31 04:37:09;;;;;;;;;;;;;;;18.39;64.50;100069.84;2263473;76;50814;-76
2022/12/31 04:40:10;;;;;;;;;;;;;;;18.34;64.56;100074.98;2246466;78;51565;-77
2022/12/31 04:43:12;;;;;;;;;;;;;;;18.30;64.80;100068.88;2214531;78;51595;-77
2022/12/31 04:46:13;;;;;;;;;;;;;;;18.29;64.92;100064.03;2246154;78;50768;-77
2022/12/31 04:49:15;;;;;;;;;;;;;;;18.38;64.74;100061.50;2268867;76;51010;-77
2022/12/31 04:52:17;;;;;;;;;;;;;;;18.45;64.60;100044.97;2270876;78;51524;-76
2022/12/31 04:55:18;;;;;;;;;;;;;;;18.52;64.43;100049.52;2246651;79;50760;-76
2022/12/31 04:58:20;;;;;;;;;;;;;;;18.53;64.32;100037.80;2245997;78;50410;-76
2022/12/31 05:01:21;;;;;;;;;;;;;;;18.54;64.26;100028.20;2244594;78;51187;-75
2022/12/31 05:04:23;;;;;;;;;;;;;;;18.52;64.26;100015.52;2246206;78;50356;-77
2022/12/31 05:07:25;;;;;;;;;;;;;;;18.49;64.30;100014.06;2270843;77;51552;-76
2022/12/31 05:10:26;;;;;;;;;;;;;;;18.46;64.37;100023.02;2270926;77;50046;-76
2022/12/31 05:13:28;;;;;;;;;;;;;;;18.43;64.42;100020.73;2244443;78;51254;-77
2022/12/31 05:16:29;;;;;;;;;;;;;;;18.39;64.51;100026.98;2245739;78;50410;-76
2022/12/31 05:19:31;;;;;;;;;;;;;;;18.35;64.61;100023.06;2266110;77;50709;-76
2022/12/31 05:22:32;;;;;;;;;;;;;;;18.31;64.77;100022.30;2283099;77;51445;-77
2022/12/31 05:25:34;;;;;;;;;;;;;;;18.29;64.94;100015.83;2283662;77;50455;-77
2022/12/31 05:28:36;;;;;;;;;;;;;;;18.37;64.80;100026.87;2283452;77;51522;-76
2022/12/31 05:31:37;;;;;;;;;;;;;;;18.42;64.69;100033.31;2275715;76;51258;-77
2022/12/31 05:34:39;;;;;;;;;;;;;;;18.51;64.48;100036.65;2283619;77;50654;-77
2022/12/31 05:37:40;;;;;;;;;;;;;;;18.55;64.36;100029.88;2250398;77;49612;-76
2022/12/31 05:40:42;;;;;;;;;;;;;;;18.55;64.29;100041.94;2283619;78;50357;-77
2022/12/31 05:43:43;;;;;;;;;;;;;;;18.53;64.26;100041.30;2283605;77;50619;-77
2022/12/31 05:46:49;;;;;;;;;;;;;;;18.50;64.31;100027.79;2283481;77;51311;-76
2022/12/31 05:49:48;;;;;;;;;;;;;;;18.47;64.35;100014.80;2271228;77;22417;-77
2022/12/31 05:52:50;;;;;;;;;;;;;;;18.44;64.41;99993.73;2265090;78;50530;-77
2022/12/31 05:55:51;;;;;;;;;;;;;;;18.40;64.51;99994.36;2265203;78;50590;-77
2022/12/31 05:58:53;;;;;;;;;;;;;;;18.35;64.59;99992.27;2241265;78;51806;-77
2022/12/31 06:01:54;;;;;;;;;;;;;;;18.32;64.70;99992.66;2265163;78;50710;-77
2022/12/31 06:04:56;;;;;;;;;;;;;;;18.26;64.94;99995.63;2266464;78;52489;-76
2022/12/31 06:07:58;;;;;;;;;;;;;;;18.30;64.92;99986.67;2264948;78;51552;-77
2022/12/31 06:10:59;;;;;;;;;;;;;;;18.40;64.73;99983.64;2265054;78;51506;-76
2022/12/31 06:14:01;;;;;;;;;;;;;;;18.46;64.56;99969.44;2265424;78;51485;-77
2022/12/31 06:17:02;;;;;;;;;;;;;;;18.51;64.41;99971.02;2241706;78;52116;-77
2022/12/31 06:20:04;;;;;;;;;;;;;;;18.55;64.25;99965.58;2265479;77;51608;-76
2022/12/31 06:23:06;;;;;;;;;;;;;;;18.53;64.22;99965.47;2275457;78;51533;-77
2022/12/31 06:26:07;;;;;;;;;;;;;;;18.50;64.26;99963.49;2278908;77;51447;-76
2022/12/31 06:29:09;;;;;;;;;;;;;;;18.47;64.37;99963.05;2279219;77;50970;-77
2022/12/31 06:32:11;;;;;;;;;;;;;;;18.44;64.40;99963.45;2254140;78;51878;-77
2022/12/31 06:35:13;;;;;;;;;;;;;;;18.40;64.44;99967.05;2275347;78;50188;-77
2022/12/31 06:38:14;;;;;;;;;;;;;;;18.37;64.45;99962.58;2275125;78;51431;-76
2022/12/31 06:41:17;;;;;;;;;;;;;;;18.32;64.52;99965.88;2254319;78;52585;-75
2022/12/31 06:44:21;;;;;;;;;;;;;;;18.25;64.84;99958.31;2275263;78;50726;-77
2022/12/31 06:47:22;;;;;;;;;;;;;;;18.27;64.93;99955.75;2275394;77;22973;-75
2022/12/31 06:50:23;;;;;;;;;;;;;;;18.37;64.77;99974.15;2278869;77;51307;-74
2022/12/31 06:53:25;;;;;;;;;;;;;;;18.45;64.54;99969.96;2250665;78;49546;-75
2022/12/31 06:56:27;;;;;;;;;;;;;;;18.52;64.38;99951.22;2283322;77;50424;-76
2022/12/31 06:59:29;;;;;;;;;;;;;;;18.55;64.16;99952.67;2283590;78;50691;-76
2022/12/31 07:02:51;;;;;;;;;;;;;;;18.50;64.18;99954.12;2275712;76;49984;-74
2022/12/31 07:05:53;;;;;;;;;;;;;;;18.48;64.20;99946.78;2250940;78;52411;-75
2022/12/31 07:09:02;;;;;;;;;;;;;;;18.46;64.30;99958.73;2283886;78;50804;-75
2022/12/31 07:12:05;;;;;;;;;;;;;;;18.42;64.47;99950.27;2284479;77;50725;-76
2022/12/31 07:15:11;;;;;;;;;;;;;;;18.37;64.50;99948.70;2284376;77;50866;-75
2022/12/31 07:18:26;;;;;;;;;;;;;;;18.35;64.54;99944.57;2245022;78;51440;-76
2022/12/31 07:21:35;;;;;;;;;;;;;;;18.30;64.65;99937.12;2277532;77;50844;-74
2022/12/31 07:24:36;;;;;;;;;;;;;;;18.27;64.91;99945.56;2275120;78;50466;-75
2022/12/31 07:27:55;;;;;;;;;;;;;;;18.33;64.82;99955.47;2279843;77;51437;-73
2022/12/31 07:31:05;;;;;;;;;;;;;;;18.40;64.81;99944.28;2286080;78;50284;-76
2022/12/31 07:34:09;;;;;;;;;;;;;;;18.47;64.87;99930.90;2286261;77;50706;-75
2022/12/31 07:37:18;;;;;;;;;;;;;;;18.53;65.03;99945.38;2257546;77;50765;-74
2022/12/31 07:40:30;;;;;;;;;;;;;;;18.53;64.80;99949.39;2245566;79;50442;-75
2022/12/31 07:43:46;;;;;;;;;;;;;;;18.54;64.75;99949.70;2214005;79;52163;-75
2022/12/31 07:46:49;;;;;;;;;;;;;;;18.52;64.62;99941.02;2245250;78;50752;-74
2022/12/31 07:49:51;;;;;;;;;;;;;;;18.48;64.63;99945.45;2270598;77;51521;-76
2022/12/31 07:52:52;;;;;;;;;;;;;;;18.45;64.60;99945.85;2280281;78;50745;-76
2022/12/31 07:55:55;;;;;;;;;;;;;;;18.40;64.69;99953.66;2246124;78;50067;-73
2022/12/31 07:58:58;;;;;;;;;;;;;;;18.36;64.75;99969.80;2275965;77;50279;-75
2022/12/31 08:02:04;;;;;;;;;;;;;;;18.31;65.03;99968.74;2274057;77;50577;-75
2022/12/31 08:05:08;;;;;;;;;;;;;;;18.34;64.96;99972.36;2280701;78;50752;-74
2022/12/31 08:08:27;;;;;;;;;;;;;;;18.44;64.76;99968.81;2236489;77;51021;-74
2022/12/31 08:11:46;;;;;;;;;;;;;;;18.52;64.53;99973.17;2276770;77;50338;-77
2022/12/31 08:14:48;;;;;;;;;;;;;;;18.55;64.41;99972.77;2277582;77;50772;-76
2022/12/31 08:17:50;;;;;;;;;;;;;;;18.53;64.41;99971.64;2255654;78;51474;-78
2022/12/31 08:21:08;;;;;;;;;;;;;;;18.50;64.49;99979.56;2260381;78;51604;-78
2022/12/31 08:24:21;;;;;;;;;;;;;;;18.49;64.69;99974.39;2246246;78;51543;-78
2022/12/31 08:27:40;;;;;;;;;;;;;;;18.51;64.59;99971.02;2245903;78;50764;-79
2022/12/31 08:30:44;;;;;;;;;;;;;;;18.54;64.52;99975.97;2246236;78;50708;-76
2022/12/31 08:34:03;;;;;;;;;;;;;;;18.52;64.66;99979.88;2214432;79;50105;-78
2022/12/31 08:37:12;;;;;;;;;;;;;;;18.45;64.80;99976.66;2246074;78;51548;-78
2022/12/31 08:40:16;;;;;;;;;;;;;;;18.49;64.97;99975.73;2248946;78;50677;-76
2022/12/31 08:43:19;;;;;;;;;;;;;;;18.59;65.17;99978.05;2247148;79;50596;-77
2022/12/31 08:46:28;;;;;;;;;;;;;;;18.62;65.24;99977.65;2214174;79;51723;-78
2022/12/31 08:49:31;;;;;;;;;;;;;;;18.70;65.38;99993.55;2263910;77;51519;-78
2022/12/31 08:52:33;;;;;;;;;;;;;;;18.74;65.27;99972.03;2265825;78;50766;-76
2022/12/31 08:55:34;;;;;;;;;;;;;;;18.74;65.23;99977.92;2253509;78;50462;-75
2022/12/31 08:58:41;;;;;;;;;;;;;;;18.71;65.18;99988.00;2250086;78;51748;-75
2022/12/31 09:02:01;;;;;;;;;;;;;;;18.72;65.18;99999.02;2282519;78;50424;-74
2022/12/31 09:05:10;;;;;;;;;;;;;;;18.67;65.19;99998.80;2282434;78;50764;-76
2022/12/31 09:08:13;;;;;;;;;;;;;;;18.60;65.38;100000.64;2284072;78;50499;-75
2022/12/31 09:11:19;;;;;;;;;;;;;;;18.55;65.66;99995.54;2214374;78;51760;-76
2022/12/31 09:14:25;;;;;;;;;;;;;;;18.46;65.83;100011.78;2276555;78;51362;-76
2022/12/31 09:17:44;;;;;;;;;;;;;;;18.46;65.81;99996.23;2238897;79;50797;-76
2022/12/31 09:20:46;;;;;;;;;;;;;;;18.40;66.02;99999.19;2259307;77;50713;-73
2022/12/31 09:23:48;;;;;;;;;;;;;;;18.38;66.00;100007.93;2248489;78;50151;-75
2022/12/31 09:26:59;;;;;;;;;;;;;;;18.38;65.97;100004.44;2272606;76;50666;-75
2022/12/31 09:30:02;;;;;;;;;;;;;;;18.34;66.12;99989.28;2266062;77;22235;-73
2022/12/31 09:33:06;;;;;;;;;;;;;;;18.32;66.20;99992.66;2268063;77;49909;-76
2022/12/31 09:36:09;;;;;;;;;;;;;;;18.29;66.44;99987.70;2247186;78;50379;-74
2022/12/31 09:39:13;;;;;;;;;;;;;;;18.21;66.67;99980.66;2271594;77;50373;-74
2022/12/31 09:42:33;;;;;;;;;;;;;;;18.10;67.16;99985.20;2260396;77;50679;-75
2022/12/31 09:45:53;;;;;;;;;;;;;;;18.14;66.89;99989.67;2271517;77;50754;-75
2022/12/31 09:48:56;;;;;;;;;;;;;;;18.25;66.55;99995.80;2269400;77;51903;-76
2022/12/31 09:52:16;;;;;;;;;;;;;;;18.40;66.05;99981.78;2268191;77;50537;-75
2022/12/31 09:55:37;;;;;;;;;;;;;;;18.47;65.89;99978.63;2272072;77;50706;-77
2022/12/31 09:58:43;;;;;;;;;;;;;;;18.60;65.62;99981.03;2270403;77;50698;-76
2022/12/31 10:01:49;;;;;;;;;;;;;;;18.60;65.94;99971.66;2247732;78;52692;-76
2022/12/31 10:04:52;;;;;;;;;;;;;;;18.63;65.87;99976.64;2247539;77;50149;-76
2022/12/31 10:08:05;;;;;;;;;;;;;;;18.66;65.75;99968.20;2270595;77;50446;-76
2022/12/31 10:11:14;;;;;;;;;;;;;;;18.66;65.67;99968.20;2271064;77;51451;-76
2022/12/31 10:14:23;;;;;;;;;;;;;;;18.67;65.65;99976.54;2239721;78;52407;-76
2022/12/31 10:17:29;;;;;;;;;;;;;;;18.63;65.70;99979.32;2269171;78;50773;-76
2022/12/31 10:20:39;;;;;;;;;;;;;;;18.60;65.79;99979.70;2262826;78;50715;-75
2022/12/31 10:23:51;;;;;;;;;;;;;;;18.56;65.86;99963.72;2267443;78;50939;-76
2022/12/31 10:27:13;;;;;;;;;;;;;;;18.55;65.93;99980.31;2243622;78;50342;-76
2022/12/31 10:30:18;;;;;;;;;;;;;;;18.49;66.14;99988.61;2267791;78;50799;-76
2022/12/31 10:33:25;;;;;;;;;;;;;;;18.43;66.23;100001.47;2270704;77;51734;-76
2022/12/31 10:36:29;;;;;;;;;;;;;;;18.38;66.40;99991.86;2264455;78;50834;-76
2022/12/31 10:39:32;;;;;;;;;;;;;;;18.35;66.44;99996.80;2244695;78;52073;-76
2022/12/31 10:42:44;;;;;;;;;;;;;;;18.26;66.69;100011.69;2265191;78;51520;-75
2022/12/31 10:45:54;;;;;;;;;;;;;;;18.21;67.03;100008.77;2264744;78;51506;-76
2022/12/31 10:48:57;;;;;;;;;;;;;;;18.19;66.90;100016.17;2262858;78;50779;-77
2022/12/31 10:52:00;;;;;;;;;;;;;;;18.13;67.02;100008.90;2260252;78;50428;-75
2022/12/31 10:55:19;;;;;;;;;;;;;;;18.08;67.26;100022.56;2265047;78;50288;-76
2022/12/31 10:58:28;;;;;;;;;;;;;;;18.13;67.19;100030.84;2264772;78;52392;-78
2022/12/31 11:01:40;;;;;;;;;;;;;;;18.24;66.94;100040.51;2267123;78;51714;-74
2022/12/31 11:04:46;;;;;;;;;;;;;;;18.39;66.55;100051.09;2245193;78;52379;-74
2022/12/31 11:07:58;;;;;;;;;;;;;;;18.57;66.02;100059.96;2269179;78;50803;-75
2022/12/31 11:11:01;;;;;;;;;;;;;;;18.58;65.82;100060.81;2269075;77;50787;-76
2022/12/31 11:14:21;;;;;;;;;;;;;;;18.58;65.82;100060.30;2269194;77;51385;-76
2022/12/31 11:17:25;;;;;;;;;;;;;;;18.63;65.64;100061.05;2270518;78;51357;-76
2022/12/31 11:20:44;;;;;;;;;;;;;;;18.63;65.61;100067.75;2269174;78;50451;-76
2022/12/31 11:24:03;;;;;;;;;;;;;;;18.55;65.80;100066.05;2269076;78;50796;-77
2022/12/31 11:27:24;;;;;;;;;;;;;;;18.51;65.92;100062.09;2269010;78;50431;-75
2022/12/31 11:30:37;;;;;;;;;;;;;;;18.52;65.94;100057.56;2244126;78;51941;-76
2022/12/31 11:33:49;;;;;;;;;;;;;;;18.42;66.15;100066.80;2204696;78;51574;-77
2022/12/31 11:36:58;;;;;;;;;;;;;;;18.39;66.34;100067.68;2267082;78;51551;-77
2022/12/31 11:40:01;;;;;;;;;;;;;;;18.36;66.35;100055.50;2269239;77;51457;-76
2022/12/31 11:43:20;;;;;;;;;;;;;;;18.37;66.37;100041.59;2245864;78;51037;-79
2022/12/31 11:46:23;;;;;;;;;;;;;;;18.34;66.51;100036.15;2269633;78;49848;-79
2022/12/31 11:49:43;;;;;;;;;;;;;;;18.32;66.52;100030.67;2268668;77;50289;-79
2022/12/31 11:52:55;;;;;;;;;;;;;;;18.27;66.70;100028.58;2269904;77;51577;-79
2022/12/31 11:56:11;;;;;;;;;;;;;;;18.21;66.81;100023.98;2246407;78;52100;-79
2022/12/31 11:59:13;;;;;;;;;;;;;;;18.16;66.92;100029.09;2269701;77;50052;-79
2022/12/31 12:02:16;;;;;;;;;;;;;;;18.10;67.17;100029.89;2269731;77;51518;-79
2022/12/31 12:05:24;;;;;;;;;;;;;;;18.09;67.34;100028.25;2269849;77;51498;-77
2022/12/31 12:08:26;;;;;;;;;;;;;;;18.19;67.06;100028.73;2246080;78;51402;-76
2022/12/31 12:11:29;;;;;;;;;;;;;;;18.30;66.88;100041.58;2269583;78;51522;-76
2022/12/31 12:14:35;;;;;;;;;;;;;;;18.44;66.62;100032.58;2269486;77;50406;-77
2022/12/31 12:17:38;;;;;;;;;;;;;;;18.52;66.52;100034.79;2269594;78;51390;-77
2022/12/31 12:20:39;;;;;;;;;;;;;;;18.52;66.56;100036.95;2246346;78;49626;-77
2022/12/31 12:23:41;;;;;;;;;;;;;;;18.56;66.56;100049.45;2270286;77;51490;-77
2022/12/31 12:26:44;;;;;;;;;;;;;;;18.55;66.73;100040.60;2270321;77;51585;-77
2022/12/31 12:29:46;;;;;;;;;;;;;;;18.55;66.84;100043.77;2270282;77;50498;-78
2022/12/31 12:32:52;;;;;;;;;;;;;;;18.50;66.93;100033.15;2246800;77;51961;-78
2022/12/31 12:35:54;;;;;;;;;;;;;;;18.49;67.26;100037.35;2267221;77;51434;-80
2022/12/31 12:39:02;;;;;;;;;;;;;;;18.53;67.09;100037.80;2270157;77;52093;-78
2022/12/31 12:42:05;;;;;;;;;;;;;;;18.56;67.17;100039.56;2270079;77;50694;-79
2022/12/31 12:45:09;;;;;;;;;;;;;;;18.46;67.65;100038.58;2247336;78;50161;-79
2022/12/31 12:48:12;;;;;;;;;;;;;;;18.45;67.43;100038.78;2269654;78;50896;-79
2022/12/31 12:51:18;;;;;;;;;;;;;;;18.39;67.45;100035.02;2264236;78;50884;-80
2022/12/31 12:54:24;;;;;;;;;;;;;;;18.39;67.31;100024.30;2268064;78;50437;-80
2022/12/31 12:57:27;;;;;;;;;;;;;;;18.29;66.88;100029.22;2235398;78;52633;-79
2022/12/31 13:00:31;;;;;;;;;;;;;;;18.24;66.94;100031.14;2245959;77;50781;-78
2022/12/31 13:03:43;;;;;;;;;;;;;;;18.18;67.15;100023.05;2261118;77;50837;-79
2022/12/31 13:06:46;;;;;;;;;;;;;;;18.12;67.32;100021.98;2291130;77;51487;-78
2022/12/31 13:09:58;;;;;;;;;;;;;;;18.08;67.47;100029.25;2283801;77;50995;-78
2022/12/31 13:13:05;;;;;;;;;;;;;;;18.02;67.64;100024.99;2308206;75;50504;-78
2022/12/31 13:16:17;;;;;;;;;;;;;;;18.03;67.65;100022.66;2279880;77;50790;-78
2022/12/31 13:19:32;;;;;;;;;;;;;;;18.13;67.26;100023.63;2303588;77;50449;-78
2022/12/31 13:22:34;;;;;;;;;;;;;;;18.26;66.90;100028.25;2261918;77;50131;-79
2022/12/31 13:25:43;;;;;;;;;;;;;;;18.37;66.55;100038.44;2267610;77;50482;-80
2022/12/31 13:28:45;;;;;;;;;;;;;;;18.44;66.31;100039.27;2262486;78;51521;-79
2022/12/31 13:31:47;;;;;;;;;;;;;;;18.35;66.85;100035.11;2267575;77;50382;-78
2022/12/31 13:34:49;;;;;;;;;;;;;;;18.31;67.12;100039.20;2244571;77;50992;-79
2022/12/31 13:37:51;;;;;;;;;;;;;;;18.35;67.21;100038.31;2291043;77;50657;-78
2022/12/31 13:40:54;;;;;;;;;;;;;;;18.32;66.98;100054.27;2308072;77;50401;-80
2022/12/31 13:44:15;;;;;;;;;;;;;;;18.33;67.03;100051.89;2308185;77;50466;-80
2022/12/31 13:47:22;;;;;;;;;;;;;;;18.31;66.96;100041.88;2281499;77;52541;-79
2022/12/31 13:50:25;;;;;;;;;;;;;;;18.31;66.94;100051.25;2269575;77;50301;-78
2022/12/31 13:53:28;;;;;;;;;;;;;;;18.26;67.08;100053.69;2269602;77;50397;-79
2022/12/31 13:56:31;;;;;;;;;;;;;;;18.25;67.09;100074.29;2269599;78;50717;-80
2022/12/31 13:59:34;;;;;;;;;;;;;;;18.22;67.13;100085.91;2246019;78;53011;-77
2022/12/31 14:02:54;;;;;;;;;;;;;;;18.17;67.16;100089.68;2269348;77;51498;-78
2022/12/31 14:06:00;;;;;;;;;;;;;;;18.15;67.20;100102.43;2269751;77;50763;-78
2022/12/31 14:09:01;;;;;;;;;;;;;;;18.13;67.31;100123.20;2269400;77;51478;-77
2022/12/31 14:12:08;;;;;;;;;;;;;;;18.07;67.46;100127.48;2236349;77;49557;-79
2022/12/31 14:15:14;;;;;;;;;;;;;;;18.03;67.59;100142.27;2258158;78;50771;-79
2022/12/31 14:18:34;;;;;;;;;;;;;;;17.98;67.70;100148.70;2253152;78;51500;-79
2022/12/31 14:21:53;;;;;;;;;;;;;;;17.95;67.78;100160.62;2232886;78;50456;-78
2022/12/31 14:24:54;;;;;;;;;;;;;;;17.94;67.90;100162.99;2209976;79;51733;-78
2022/12/31 14:27:56;;;;;;;;;;;;;;;18.07;67.61;100166.31;2243442;78;51516;-77
2022/12/31 14:30:59;;;;;;;;;;;;;;;18.17;67.43;100172.69;2268876;78;50474;-76
2022/12/31 14:34:18;;;;;;;;;;;;;;;18.33;66.98;100172.41;2268093;78;50705;-76
2022/12/31 14:37:21;;;;;;;;;;;;;;;18.43;66.63;100169.41;2232517;78;51353;-76
2022/12/31 14:40:30;;;;;;;;;;;;;;;18.44;66.48;100177.23;2266639;78;50283;-76
2022/12/31 14:43:51;;;;;;;;;;;;;;;18.42;66.53;100181.98;2267060;77;51544;-76
2022/12/31 14:47:10;;;;;;;;;;;;;;;18.44;66.46;100191.97;2267077;78;51561;-77
2022/12/31 14:50:22;;;;;;;;;;;;;;;18.43;66.70;100201.03;2243556;78;51873;-77
2022/12/31 14:53:25;;;;;;;;;;;;;;;18.41;66.70;100199.58;2267118;78;50589;-78
2022/12/31 14:56:27;;;;;;;;;;;;;;;18.37;66.79;100200.48;2268385;78;50713;-78
2022/12/31 14:59:30;;;;;;;;;;;;;;;18.34;66.82;100214.27;2267143;78;50360;-78
2022/12/31 15:02:32;;;;;;;;;;;;;;;18.32;66.94;100210.13;2243554;78;49604;-78
2022/12/31 15:05:34;;;;;;;;;;;;;;;18.28;67.09;100209.66;2268603;78;51514;-77
2022/12/31 15:08:47;;;;;;;;;;;;;;;18.32;67.10;100210.13;2266819;78;51483;-77
2022/12/31 15:11:56;;;;;;;;;;;;;;;18.27;67.34;100216.05;2266986;78;50310;-77
2022/12/31 15:15:11;;;;;;;;;;;;;;;18.21;67.41;100220.33;2243506;78;51678;-78
2022/12/31 15:18:21;;;;;;;;;;;;;;;18.16;67.33;100215.20;2307138;77;51533;-79
2022/12/31 15:21:27;;;;;;;;;;;;;;;18.17;67.50;100220.89;2297834;77;51374;-77
2022/12/31 15:24:29;;;;;;;;;;;;;;;18.12;67.58;100213.94;2282597;77;50326;-77
2022/12/31 15:27:35;;;;;;;;;;;;;;;18.08;67.79;100223.36;2242741;78;51124;-76
2022/12/31 15:30:37;;;;;;;;;;;;;;;17.98;68.18;100215.14;2284549;77;51577;-76
2022/12/31 15:33:40;;;;;;;;;;;;;;;18.03;68.40;100215.88;2266514;78;51597;-74
2022/12/31 15:36:43;;;;;;;;;;;;;;;18.18;68.76;100225.21;2266390;78;50782;-72
2022/12/31 15:39:45;;;;;;;;;;;;;;;18.27;68.55;100230.77;2241820;78;51968;-74
2022/12/31 15:42:48;;;;;;;;;;;;;;;18.42;68.11;100237.37;2266521;78;51402;-75
2022/12/31 15:45:51;;;;;;;;;;;;;;;18.52;67.80;100241.08;2266246;78;51569;-74
2022/12/31 15:48:56;;;;;;;;;;;;;;;18.48;67.71;100237.45;2280306;77;51494;-74
2022/12/31 15:52:08;;;;;;;;;;;;;;;18.44;66.79;100236.17;2282227;77;24547;-75
2022/12/31 15:55:11;;;;;;;;;;;;;;;18.52;67.16;100230.37;2276502;77;51525;-76
2022/12/31 15:58:14;;;;;;;;;;;;;;;18.57;67.20;100211.86;2280427;77;50871;-76
2022/12/31 16:01:19;;;;;;;;;;;;;;;18.53;67.20;100224.83;2295931;77;50665;-75
2022/12/31 16:04:25;;;;;;;;;;;;;;;18.47;67.94;100229.59;2264594;78;49969;-76
2022/12/31 16:07:27;;;;;;;;;;;;;;;18.49;68.28;100236.42;2245443;78;51256;-76
2022/12/31 16:10:29;;;;;;;;;;;;;;;18.41;67.30;100241.09;2268943;77;50721;-77
2022/12/31 16:13:30;;;;;;;;;;;;;;;18.34;66.48;100238.37;2268890;78;50449;-76